Terminal Aerodrome Forecast
Issued by NWS Pocatello, ID

Home | Current Version | Previous Version | Text Only | Print | Product List | Glossary On
Versions: 1 2 3 4 5 6 7 8 9 10 11 12 13 14 15 16 17 18 19 20 21 22 23 24 25 26 27 28 29 30
000
FTUS45 KPIH 051735
TAFPIH
TAF
KPIH 051735Z 0518/0618 22020G30KT P6SM SCT015
     FM060200 16006KT P6SM SCT015
      TEMPO 0609/0613 6SM BR SCT007 BKN015
     FM061300 VRB06KT P6SM SCT020 BKN035=

USA.gov is the U.S. government's official web portal to all federal, state and local government web resources and services.